createdAt,value
2022-12-22T18:56:32.063Z,27.17
2022-12-22T18:58:59.398Z,22.50
2022-12-22T19:01:27.254Z,25.77
2022-12-22T19:03:56.418Z,33.38
2022-12-22T19:06:23.835Z,32.85
2022-12-22T19:08:51.391Z,27.17
2022-12-22T19:11:23.042Z,25.08
2022-12-22T19:13:51.701Z,25.30
2022-12-22T19:16:23.416Z,21.50
2022-12-22T19:18:50.667Z,20.50
2022-12-22T19:21:18.630Z,17.25
2022-12-22T19:23:45.867Z,13.05
2022-12-22T19:26:22.252Z,11.20
2022-12-22T19:28:53.713Z,11.38
2022-12-22T19:31:26.165Z,12.00
2022-12-22T19:33:55.562Z,15.57
2022-12-22T19:36:28.132Z,15.25
2022-12-22T19:39:05.789Z,24.83
2022-12-22T19:41:38.991Z,27.15
2022-12-22T19:44:13.206Z,12.48
2022-12-22T19:46:40.201Z,8.27
2022-12-22T19:49:10.631Z,7.43
2022-12-22T19:51:37.564Z,9.70
2022-12-22T19:54:04.600Z,8.43
2022-12-22T19:56:31.451Z,10.80
2022-12-22T19:59:00.792Z,9.27
2022-12-22T20:01:28.011Z,8.25
2022-12-22T20:03:56.231Z,9.52
2022-12-22T20:06:23.241Z,6.72
2022-12-22T20:08:50.150Z,7.43
2022-12-22T20:11:19.399Z,7.38
2022-12-22T20:13:47.526Z,7.97
2022-12-22T20:16:15.956Z,9.32
2022-12-22T20:18:44.304Z,7.53
2022-12-22T20:21:31.596Z,8.55
2022-12-22T20:24:01.095Z,7.38
2022-12-22T20:26:28.561Z,9.85
2022-12-22T20:28:55.495Z,8.75
2022-12-22T20:31:24.065Z,8.10
2022-12-22T20:33:52.029Z,9.82
2022-12-22T20:36:31.907Z,9.00
2022-12-22T20:39:00.197Z,9.25
2022-12-22T20:41:27.594Z,8.68
2022-12-22T20:43:54.636Z,8.57
2022-12-22T20:46:25.914Z,8.02
2022-12-22T20:49:13.290Z,9.57
2022-12-22T20:51:40.345Z,9.70
2022-12-22T20:54:07.246Z,10.23
2022-12-22T20:56:38.970Z,9.88
2022-12-22T20:59:18.663Z,9.77
2022-12-22T21:01:46.626Z,10.23
2022-12-22T21:04:15.095Z,8.52
2022-12-22T21:07:00.001Z,8.48
2022-12-22T21:09:27.144Z,9.55
2022-12-22T21:11:54.030Z,10.18
2022-12-22T21:14:20.941Z,10.38
2022-12-22T21:16:49.149Z,9.25
2022-12-22T21:19:19.356Z,8.50
2022-12-22T21:21:48.457Z,9.90
2022-12-22T21:24:15.399Z,8.35
2022-12-22T21:26:46.029Z,9.77
2022-12-22T21:29:17.570Z,10.18
2022-12-22T21:31:44.496Z,8.38
2022-12-22T21:34:11.742Z,8.48
2022-12-22T21:36:40.233Z,10.03
2022-12-22T21:39:25.547Z,7.97
2022-12-22T21:42:01.537Z,8.03
2022-12-22T21:44:30.039Z,10.52
2022-12-22T21:46:57.371Z,8.90
2022-12-22T21:49:27.298Z,8.15
2022-12-22T21:51:55.074Z,8.15
2022-12-22T21:54:23.827Z,6.87
2022-12-22T21:56:51.914Z,9.27
2022-12-22T21:59:19.024Z,9.32
2022-12-22T22:01:46.608Z,12.32
2022-12-22T22:04:14.201Z,9.73
2022-12-22T22:06:41.219Z,10.32
2022-12-22T22:09:08.158Z,10.70
2022-12-22T22:11:58.169Z,8.10
2022-12-22T22:14:28.334Z,8.85
2022-12-22T22:16:55.324Z,9.57
2022-12-22T22:19:22.455Z,10.88
2022-12-22T22:21:49.438Z,10.75
2022-12-22T22:24:16.376Z,11.27
2022-12-22T22:26:46.300Z,13.52
2022-12-22T22:29:13.443Z,13.02
2022-12-22T22:31:41.401Z,10.88
2022-12-22T22:34:08.530Z,13.40
2022-12-22T22:36:35.377Z,10.80
2022-12-22T22:39:02.236Z,14.07
2022-12-22T22:41:33.020Z,11.27
2022-12-22T22:44:02.442Z,10.53
2022-12-22T22:46:29.348Z,7.75
2022-12-22T22:48:58.614Z,34.47
2022-12-22T22:51:25.556Z,44.97
2022-12-22T22:53:52.376Z,49.78
2022-12-22T22:56:19.202Z,28.08
2022-12-22T22:58:46.013Z,14.30
2022-12-22T23:01:13.163Z,11.50
2022-12-22T23:03:40.320Z,10.55
2022-12-22T23:06:10.467Z,13.97
2022-12-22T23:08:37.571Z,11.57
2022-12-22T23:11:05.306Z,15.02
2022-12-22T23:13:32.736Z,13.82
2022-12-22T23:16:02.261Z,14.60
2022-12-22T23:18:32.503Z,10.55
2022-12-22T23:21:05.265Z,17.33
2022-12-22T23:23:33.571Z,11.52
2022-12-22T23:26:00.513Z,8.57
2022-12-22T23:28:27.389Z,12.48
2022-12-22T23:30:54.423Z,14.87
2022-12-22T23:33:22.029Z,10.93
2022-12-22T23:35:49.986Z,12.23
2022-12-22T23:38:18.529Z,12.33
2022-12-22T23:40:54.429Z,18.17
2022-12-22T23:43:22.125Z,17.63
2022-12-22T23:45:49.042Z,18.02
2022-12-22T23:48:15.890Z,23.83
2022-12-22T23:50:46.113Z,13.52
2022-12-22T23:53:13.203Z,13.63
2022-12-22T23:55:47.632Z,13.73
2022-12-22T23:58:15.376Z,11.95
